sensor_id;sensor_type;location;lat;lon;timestamp;pressure;altitude;pressure_sealevel;temperature;humidity
79198;BME280;68628;48.714;9.472;2023-04-15T00:01:27;97118.88;;;3.72;77.55
79198;BME280;68628;48.714;9.472;2023-04-15T00:03:54;97123.81;;;3.75;78.00
79198;BME280;68628;48.714;9.472;2023-04-15T00:06:21;97116.16;;;3.73;78.29
79198;BME280;68628;48.714;9.472;2023-04-15T00:08:47;97118.72;;;3.65;78.52
79198;BME280;68628;48.714;9.472;2023-04-15T00:11:16;97108.75;;;3.52;78.51
79198;BME280;68628;48.714;9.472;2023-04-15T00:13:42;97105.75;;;3.39;78.36
79198;BME280;68628;48.714;9.472;2023-04-15T00:16:09;97108.03;;;3.33;77.92
79198;BME280;68628;48.714;9.472;2023-04-15T00:18:35;97110.16;;;3.38;77.73
79198;BME280;68628;48.714;9.472;2023-04-15T00:21:02;97111.78;;;3.39;77.11
79198;BME280;68628;48.714;9.472;2023-04-15T00:23:28;97116.50;;;3.36;77.81
79198;BME280;68628;48.714;9.472;2023-04-15T00:25:55;97122.19;;;3.31;77.43
79198;BME280;68628;48.714;9.472;2023-04-15T00:28:20;97121.06;;;3.33;77.20
79198;BME280;68628;48.714;9.472;2023-04-15T00:30:46;97112.56;;;3.31;77.23
79198;BME280;68628;48.714;9.472;2023-04-15T00:33:13;97117.41;;;3.18;78.13
79198;BME280;68628;48.714;9.472;2023-04-15T00:35:39;97113.19;;;3.25;78.34
79198;BME280;68628;48.714;9.472;2023-04-15T00:38:06;97111.09;;;3.29;78.50
79198;BME280;68628;48.714;9.472;2023-04-15T00:40:33;97100.34;;;3.32;78.21
79198;BME280;68628;48.714;9.472;2023-04-15T00:42:59;97107.88;;;3.35;78.20
79198;BME280;68628;48.714;9.472;2023-04-15T00:45:25;97113.06;;;3.27;78.73
79198;BME280;68628;48.714;9.472;2023-04-15T00:47:52;97101.28;;;3.23;79.79
79198;BME280;68628;48.714;9.472;2023-04-15T00:50:18;97110.63;;;3.33;78.28
79198;BME280;68628;48.714;9.472;2023-04-15T00:52:44;97102.75;;;3.25;79.20
79198;BME280;68628;48.714;9.472;2023-04-15T00:55:09;97104.91;;;3.30;77.88
79198;BME280;68628;48.714;9.472;2023-04-15T00:57:35;97105.38;;;3.25;77.86
79198;BME280;68628;48.714;9.472;2023-04-15T01:00:02;97105.69;;;3.22;77.68
79198;BME280;68628;48.714;9.472;2023-04-15T01:02:30;97101.75;;;3.10;78.49
79198;BME280;68628;48.714;9.472;2023-04-15T01:04:56;97101.38;;;3.05;78.04
79198;BME280;68628;48.714;9.472;2023-04-15T01:07:22;97104.28;;;3.02;78.46
79198;BME280;68628;48.714;9.472;2023-04-15T01:09:48;97108.31;;;2.96;78.43
79198;BME280;68628;48.714;9.472;2023-04-15T01:12:15;97106.56;;;2.96;78.63
79198;BME280;68628;48.714;9.472;2023-04-15T01:14:42;97109.59;;;2.92;78.71
79198;BME280;68628;48.714;9.472;2023-04-15T01:17:08;97107.91;;;2.82;78.50
79198;BME280;68628;48.714;9.472;2023-04-15T01:19:35;97110.88;;;2.88;78.62
79198;BME280;68628;48.714;9.472;2023-04-15T01:22:02;97117.81;;;2.79;78.83
79198;BME280;68628;48.714;9.472;2023-04-15T01:24:30;97116.47;;;2.75;78.52
79198;BME280;68628;48.714;9.472;2023-04-15T01:27:00;97108.22;;;2.79;78.69
79198;BME280;68628;48.714;9.472;2023-04-15T01:29:26;97106.22;;;2.73;78.35
79198;BME280;68628;48.714;9.472;2023-04-15T01:31:54;97107.66;;;2.67;79.28
79198;BME280;68628;48.714;9.472;2023-04-15T01:34:21;97106.03;;;2.66;79.80
79198;BME280;68628;48.714;9.472;2023-04-15T01:36:47;97106.19;;;2.65;79.73
79198;BME280;68628;48.714;9.472;2023-04-15T01:39:13;97098.38;;;2.65;80.00
79198;BME280;68628;48.714;9.472;2023-04-15T01:41:39;97093.81;;;2.67;79.76
79198;BME280;68628;48.714;9.472;2023-04-15T01:44:07;97096.16;;;2.70;80.42
79198;BME280;68628;48.714;9.472;2023-04-15T01:46:33;97093.69;;;2.69;80.07
79198;BME280;68628;48.714;9.472;2023-04-15T01:49:00;97096.53;;;2.57;80.13
79198;BME280;68628;48.714;9.472;2023-04-15T01:51:26;97102.63;;;2.66;79.41
79198;BME280;68628;48.714;9.472;2023-04-15T01:53:52;97099.00;;;2.41;79.87
79198;BME280;68628;48.714;9.472;2023-04-15T01:56:21;97103.56;;;2.21;80.76
79198;BME280;68628;48.714;9.472;2023-04-15T01:58:48;97107.66;;;2.05;82.66
79198;BME280;68628;48.714;9.472;2023-04-15T02:01:14;97100.44;;;1.99;84.01
79198;BME280;68628;48.714;9.472;2023-04-15T02:03:41;97102.00;;;2.10;83.22
79198;BME280;68628;48.714;9.472;2023-04-15T02:06:07;97098.56;;;2.27;83.11
79198;BME280;68628;48.714;9.472;2023-04-15T02:08:32;97095.53;;;2.32;82.54
79198;BME280;68628;48.714;9.472;2023-04-15T02:10:58;97090.88;;;2.36;80.86
79198;BME280;68628;48.714;9.472;2023-04-15T02:13:25;97095.69;;;2.30;81.15
79198;BME280;68628;48.714;9.472;2023-04-15T02:15:51;97089.22;;;2.35;81.19
79198;BME280;68628;48.714;9.472;2023-04-15T02:18:17;97086.25;;;2.29;80.90
79198;BME280;68628;48.714;9.472;2023-04-15T02:20:43;97081.34;;;1.90;82.53
79198;BME280;68628;48.714;9.472;2023-04-15T02:23:09;97087.75;;;2.14;81.76
79198;BME280;68628;48.714;9.472;2023-04-15T02:25:35;97092.34;;;2.02;81.50
79198;BME280;68628;48.714;9.472;2023-04-15T02:28:01;97091.09;;;2.06;81.45
79198;BME280;68628;48.714;9.472;2023-04-15T02:30:27;97093.56;;;2.08;81.11
79198;BME280;68628;48.714;9.472;2023-04-15T02:32:52;97086.72;;;2.07;80.87
79198;BME280;68628;48.714;9.472;2023-04-15T02:35:18;97082.78;;;2.03;80.45
79198;BME280;68628;48.714;9.472;2023-04-15T02:37:44;97098.00;;;1.97;80.86
79198;BME280;68628;48.714;9.472;2023-04-15T02:40:11;97093.63;;;1.98;80.77
79198;BME280;68628;48.714;9.472;2023-04-15T02:42:41;97091.59;;;1.92;80.66
79198;BME280;68628;48.714;9.472;2023-04-15T02:45:08;97094.44;;;1.98;80.61
79198;BME280;68628;48.714;9.472;2023-04-15T02:47:36;97097.47;;;1.94;80.70
79198;BME280;68628;48.714;9.472;2023-04-15T02:50:10;97090.78;;;1.91;80.85
79198;BME280;68628;48.714;9.472;2023-04-15T02:52:40;97091.97;;;1.97;80.36
79198;BME280;68628;48.714;9.472;2023-04-15T02:55:07;97093.53;;;1.90;80.79
79198;BME280;68628;48.714;9.472;2023-04-15T02:57:34;97090.63;;;1.93;80.86
79198;BME280;68628;48.714;9.472;2023-04-15T03:00:02;97094.66;;;1.87;80.53
79198;BME280;68628;48.714;9.472;2023-04-15T03:02:37;97088.50;;;1.88;81.32
79198;BME280;68628;48.714;9.472;2023-04-15T03:05:04;97096.44;;;1.87;81.48
79198;BME280;68628;48.714;9.472;2023-04-15T03:07:31;97094.28;;;1.82;81.19
79198;BME280;68628;48.714;9.472;2023-04-15T03:09:57;97101.75;;;1.85;81.47
79198;BME280;68628;48.714;9.472;2023-04-15T03:12:22;97098.44;;;1.93;80.93
79198;BME280;68628;48.714;9.472;2023-04-15T03:14:48;97098.16;;;1.96;80.89
79198;BME280;68628;48.714;9.472;2023-04-15T03:17:14;97094.34;;;1.90;80.91
79198;BME280;68628;48.714;9.472;2023-04-15T03:19:40;97094.34;;;1.90;80.80
79198;BME280;68628;48.714;9.472;2023-04-15T03:22:05;97089.47;;;1.87;81.32
79198;BME280;68628;48.714;9.472;2023-04-15T03:24:31;97094.19;;;1.92;81.37
79198;BME280;68628;48.714;9.472;2023-04-15T03:26:56;97093.25;;;1.93;81.13
79198;BME280;68628;48.714;9.472;2023-04-15T03:29:22;97086.56;;;1.90;80.80
79198;BME280;68628;48.714;9.472;2023-04-15T03:31:48;97093.31;;;1.83;81.60
79198;BME280;68628;48.714;9.472;2023-04-15T03:34:14;97091.47;;;1.93;80.71
79198;BME280;68628;48.714;9.472;2023-04-15T03:36:40;97091.25;;;1.87;80.54
79198;BME280;68628;48.714;9.472;2023-04-15T03:39:05;97088.78;;;1.85;80.56
79198;BME280;68628;48.714;9.472;2023-04-15T03:41:31;97084.56;;;1.84;80.50
79198;BME280;68628;48.714;9.472;2023-04-15T03:43:57;97088.66;;;1.87;80.78
79198;BME280;68628;48.714;9.472;2023-04-15T03:46:22;97099.84;;;1.87;80.93
79198;BME280;68628;48.714;9.472;2023-04-15T03:48:48;97100.06;;;1.94;80.66
79198;BME280;68628;48.714;9.472;2023-04-15T03:51:14;97095.69;;;1.94;80.30
79198;BME280;68628;48.714;9.472;2023-04-15T03:53:39;97090.78;;;1.91;80.17
79198;BME280;68628;48.714;9.472;2023-04-15T03:56:05;97096.28;;;1.88;80.74
79198;BME280;68628;48.714;9.472;2023-04-15T03:58:31;97094.50;;;1.89;80.80
79198;BME280;68628;48.714;9.472;2023-04-15T04:00:57;97095.91;;;1.83;80.70
79198;BME280;68628;48.714;9.472;2023-04-15T04:03:22;97098.66;;;1.81;80.82
79198;BME280;68628;48.714;9.472;2023-04-15T04:05:48;97098.38;;;1.85;81.20
79198;BME280;68628;48.714;9.472;2023-04-15T04:08:14;97091.31;;;1.77;81.07
79198;BME280;68628;48.714;9.472;2023-04-15T04:10:41;97105.25;;;1.76;81.24
79198;BME280;68628;48.714;9.472;2023-04-15T04:13:07;97109.41;;;1.69;81.82
79198;BME280;68628;48.714;9.472;2023-04-15T04:15:33;97113.34;;;1.73;81.19
79198;BME280;68628;48.714;9.472;2023-04-15T04:17:58;97115.63;;;1.76;81.38
79198;BME280;68628;48.714;9.472;2023-04-15T04:20:24;97111.78;;;1.80;80.62
79198;BME280;68628;48.714;9.472;2023-04-15T04:22:49;97115.13;;;1.72;81.56
79198;BME280;68628;48.714;9.472;2023-04-15T04:25:15;97117.13;;;1.60;81.64
79198;BME280;68628;48.714;9.472;2023-04-15T04:27:41;97122.81;;;1.64;81.95
79198;BME280;68628;48.714;9.472;2023-04-15T04:30:07;97119.84;;;1.59;81.74
79198;BME280;68628;48.714;9.472;2023-04-15T04:32:32;97122.78;;;1.46;82.42
79198;BME280;68628;48.714;9.472;2023-04-15T04:34:58;97127.25;;;1.54;81.71
79198;BME280;68628;48.714;9.472;2023-04-15T04:37:24;97122.88;;;1.54;80.97
79198;BME280;68628;48.714;9.472;2023-04-15T04:39:49;97123.97;;;1.52;80.77
79198;BME280;68628;48.714;9.472;2023-04-15T04:42:15;97129.31;;;1.50;80.82
79198;BME280;68628;48.714;9.472;2023-04-15T04:44:41;97128.63;;;1.48;80.84
79198;BME280;68628;48.714;9.472;2023-04-15T04:47:06;97137.25;;;1.48;80.67
79198;BME280;68628;48.714;9.472;2023-04-15T04:49:32;97134.13;;;1.45;81.04
79198;BME280;68628;48.714;9.472;2023-04-15T04:51:58;97130.44;;;1.47;80.70
79198;BME280;68628;48.714;9.472;2023-04-15T04:54:24;97129.22;;;1.42;80.76
79198;BME280;68628;48.714;9.472;2023-04-15T04:56:50;97131.22;;;1.48;80.63
79198;BME280;68628;48.714;9.472;2023-04-15T04:59:16;97140.13;;;1.45;81.06
79198;BME280;68628;48.714;9.472;2023-04-15T05:01:41;97133.44;;;1.43;80.82
79198;BME280;68628;48.714;9.472;2023-04-15T05:04:07;97128.53;;;1.40;81.03
79198;BME280;68628;48.714;9.472;2023-04-15T05:06:33;97134.28;;;1.43;80.98
79198;BME280;68628;48.714;9.472;2023-04-15T05:09:01;97127.28;;;1.44;80.73
79198;BME280;68628;48.714;9.472;2023-04-15T05:11:27;97128.47;;;1.49;80.43
79198;BME280;68628;48.714;9.472;2023-04-15T05:13:53;97120.34;;;1.44;81.26
79198;BME280;68628;48.714;9.472;2023-04-15T05:16:19;97127.44;;;1.42;80.96
79198;BME280;68628;48.714;9.472;2023-04-15T05:18:45;97122.88;;;1.54;81.03
79198;BME280;68628;48.714;9.472;2023-04-15T05:21:12;97121.91;;;1.55;80.50
79198;BME280;68628;48.714;9.472;2023-04-15T05:23:38;97127.66;;;1.59;80.75
79198;BME280;68628;48.714;9.472;2023-04-15T05:26:03;97129.78;;;1.63;80.26
79198;BME280;68628;48.714;9.472;2023-04-15T05:28:29;97131.81;;;1.70;80.34
79198;BME280;68628;48.714;9.472;2023-04-15T05:30:55;97132.63;;;1.70;80.30
79198;BME280;68628;48.714;9.472;2023-04-15T05:33:20;97130.97;;;1.51;81.73
79198;BME280;68628;48.714;9.472;2023-04-15T05:35:46;97145.63;;;1.70;80.82
79198;BME280;68628;48.714;9.472;2023-04-15T05:38:12;97134.66;;;1.76;80.29
79198;BME280;68628;48.714;9.472;2023-04-15T05:40:37;97141.03;;;1.82;79.67
79198;BME280;68628;48.714;9.472;2023-04-15T05:43:03;97142.94;;;1.80;79.69
79198;BME280;68628;48.714;9.472;2023-04-15T05:45:29;97140.72;;;1.85;80.25
79198;BME280;68628;48.714;9.472;2023-04-15T05:47:54;97143.47;;;1.83;80.03
79198;BME280;68628;48.714;9.472;2023-04-15T05:50:20;97136.00;;;1.80;80.51
79198;BME280;68628;48.714;9.472;2023-04-15T05:52:46;97141.13;;;1.90;79.36
79198;BME280;68628;48.714;9.472;2023-04-15T05:55:11;97136.09;;;2.07;79.04
79198;BME280;68628;48.714;9.472;2023-04-15T05:57:40;97148.56;;;2.21;78.95
79198;BME280;68628;48.714;9.472;2023-04-15T06:00:06;97140.25;;;2.36;78.97
79198;BME280;68628;48.714;9.472;2023-04-15T06:02:32;97141.91;;;2.63;78.06
79198;BME280;68628;48.714;9.472;2023-04-15T06:04:58;97154.34;;;2.95;77.22
79198;BME280;68628;48.714;9.472;2023-04-15T06:07:25;97145.75;;;3.29;76.35
79198;BME280;68628;48.714;9.472;2023-04-15T06:09:50;97157.94;;;3.55;75.33
79198;BME280;68628;48.714;9.472;2023-04-15T06:12:16;97149.66;;;4.85;71.97
79198;BME280;68628;48.714;9.472;2023-04-15T06:14:41;97151.75;;;4.81;70.94
79198;BME280;68628;48.714;9.472;2023-04-15T06:17:08;97151.44;;;4.68;71.03
79198;BME280;68628;48.714;9.472;2023-04-15T06:19:34;97149.34;;;4.63;69.83
79198;BME280;68628;48.714;9.472;2023-04-15T06:22:01;97157.84;;;4.74;71.38
79198;BME280;68628;48.714;9.472;2023-04-15T06:24:28;97155.84;;;4.76;70.64
79198;BME280;68628;48.714;9.472;2023-04-15T06:26:53;97164.31;;;5.03;69.52
79198;BME280;68628;48.714;9.472;2023-04-15T06:29:19;97155.34;;;4.97;69.47
79198;BME280;68628;48.714;9.472;2023-04-15T06:31:48;97156.50;;;4.94;68.52
79198;BME280;68628;48.714;9.472;2023-04-15T06:34:14;97162.22;;;4.98;70.66
79198;BME280;68628;48.714;9.472;2023-04-15T06:36:39;97155.19;;;5.07;69.71
79198;BME280;68628;48.714;9.472;2023-04-15T06:39:05;97155.31;;;5.22;68.78
79198;BME280;68628;48.714;9.472;2023-04-15T06:41:31;97159.91;;;5.59;68.22
79198;BME280;68628;48.714;9.472;2023-04-15T06:43:57;97158.88;;;5.77;67.32
79198;BME280;68628;48.714;9.472;2023-04-15T06:46:22;97159.47;;;5.95;65.94
79198;BME280;68628;48.714;9.472;2023-04-15T06:48:48;97158.38;;;5.81;65.58
79198;BME280;68628;48.714;9.472;2023-04-15T06:51:14;97168.38;;;5.70;66.01
79198;BME280;68628;48.714;9.472;2023-04-15T06:53:39;97172.59;;;5.31;66.22
79198;BME280;68628;48.714;9.472;2023-04-15T06:56:09;97168.88;;;5.25;67.80
79198;BME280;68628;48.714;9.472;2023-04-15T06:58:35;97157.13;;;5.05;68.28
79198;BME280;68628;48.714;9.472;2023-04-15T07:01:01;97162.44;;;5.44;67.11
79198;BME280;68628;48.714;9.472;2023-04-15T07:03:28;97157.69;;;5.48;67.32
79198;BME280;68628;48.714;9.472;2023-04-15T07:05:54;97160.97;;;5.42;66.91
79198;BME280;68628;48.714;9.472;2023-04-15T07:08:19;97161.50;;;5.77;65.70
79198;BME280;68628;48.714;9.472;2023-04-15T07:10:46;97164.34;;;5.59;66.34
79198;BME280;68628;48.714;9.472;2023-04-15T07:13:12;97159.03;;;5.83;65.85
79198;BME280;68628;48.714;9.472;2023-04-15T07:15:38;97157.34;;;5.91;64.86
79198;BME280;68628;48.714;9.472;2023-04-15T07:18:04;97159.44;;;6.27;63.50
79198;BME280;68628;48.714;9.472;2023-04-15T07:20:29;97157.06;;;6.17;63.56
79198;BME280;68628;48.714;9.472;2023-04-15T07:22:55;97148.63;;;6.53;62.54
79198;BME280;68628;48.714;9.472;2023-04-15T07:25:21;97147.31;;;6.34;63.67
79198;BME280;68628;48.714;9.472;2023-04-15T07:27:47;97155.47;;;6.08;63.76
79198;BME280;68628;48.714;9.472;2023-04-15T07:30:13;97164.50;;;5.97;65.24
79198;BME280;68628;48.714;9.472;2023-04-15T07:32:39;97157.47;;;6.52;64.26
79198;BME280;68628;48.714;9.472;2023-04-15T07:35:05;97152.72;;;6.94;62.83
79198;BME280;68628;48.714;9.472;2023-04-15T07:37:32;97155.88;;;6.51;62.27
79198;BME280;68628;48.714;9.472;2023-04-15T07:39:57;97146.66;;;6.55;62.78
79198;BME280;68628;48.714;9.472;2023-04-15T07:42:23;97146.44;;;6.80;61.70
79198;BME280;68628;48.714;9.472;2023-04-15T07:44:49;97146.91;;;6.83;61.98
79198;BME280;68628;48.714;9.472;2023-04-15T07:47:15;97150.75;;;7.11;61.57
79198;BME280;68628;48.714;9.472;2023-04-15T07:49:41;97148.69;;;7.21;60.44
79198;BME280;68628;48.714;9.472;2023-04-15T07:52:07;97149.41;;;7.15;60.65
79198;BME280;68628;48.714;9.472;2023-04-15T07:54:33;97146.47;;;7.99;58.52
79198;BME280;68628;48.714;9.472;2023-04-15T07:56:58;97157.28;;;7.60;59.62
79198;BME280;68628;48.714;9.472;2023-04-15T07:59:24;97144.06;;;8.41;57.57
79198;BME280;68628;48.714;9.472;2023-04-15T08:01:51;97148.31;;;8.21;57.25
79198;BME280;68628;48.714;9.472;2023-04-15T08:04:17;97138.31;;;8.31;58.53
79198;BME280;68628;48.714;9.472;2023-04-15T08:06:43;97143.16;;;8.71;57.46
79198;BME280;68628;48.714;9.472;2023-04-15T08:09:08;97134.25;;;8.72;56.14
79198;BME280;68628;48.714;9.472;2023-04-15T08:11:34;97127.97;;;8.94;56.78
79198;BME280;68628;48.714;9.472;2023-04-15T08:14:01;97138.31;;;10.34;53.40
79198;BME280;68628;48.714;9.472;2023-04-15T08:16:27;97128.47;;;11.76;51.22
79198;BME280;68628;48.714;9.472;2023-04-15T08:18:55;97130.56;;;11.47;51.40
79198;BME280;68628;48.714;9.472;2023-04-15T08:21:21;97134.59;;;11.70;48.47
79198;BME280;68628;48.714;9.472;2023-04-15T08:23:49;97121.38;;;12.54;49.22
79198;BME280;68628;48.714;9.472;2023-04-15T08:26:16;97134.31;;;12.87;46.34
79198;BME280;68628;48.714;9.472;2023-04-15T08:28:44;97127.19;;;12.37;45.42
79198;BME280;68628;48.714;9.472;2023-04-15T08:31:12;97126.59;;;11.96;47.96
79198;BME280;68628;48.714;9.472;2023-04-15T08:33:39;97128.94;;;13.00;45.93
79198;BME280;68628;48.714;9.472;2023-04-15T08:36:05;97122.56;;;13.27;45.55
79198;BME280;68628;48.714;9.472;2023-04-15T08:38:31;97120.97;;;11.73;47.93
79198;BME280;68628;48.714;9.472;2023-04-15T08:41:01;97124.97;;;11.95;48.26
79198;BME280;68628;48.714;9.472;2023-04-15T08:43:34;97122.56;;;11.02;49.59
79198;BME280;68628;48.714;9.472;2023-04-15T08:46:03;97118.09;;;12.58;48.17
79198;BME280;68628;48.714;9.472;2023-04-15T08:48:32;97116.63;;;12.62;46.22
79198;BME280;68628;48.714;9.472;2023-04-15T08:50:59;97122.09;;;13.55;44.30
79198;BME280;68628;48.714;9.472;2023-04-15T08:53:28;97119.16;;;15.21;42.29
79198;BME280;68628;48.714;9.472;2023-04-15T08:55:56;97126.53;;;14.41;43.91
79198;BME280;68628;48.714;9.472;2023-04-15T08:58:27;97115.63;;;14.61;43.06
79198;BME280;68628;48.714;9.472;2023-04-15T09:00:53;97109.88;;;14.64;42.81
79198;BME280;68628;48.714;9.472;2023-04-15T09:03:21;97117.50;;;15.55;41.59
79198;BME280;68628;48.714;9.472;2023-04-15T09:05:49;97116.06;;;14.15;43.03
79198;BME280;68628;48.714;9.472;2023-04-15T09:08:15;97119.72;;;14.03;43.91
79198;BME280;68628;48.714;9.472;2023-04-15T09:10:41;97114.41;;;14.03;42.90
79198;BME280;68628;48.714;9.472;2023-04-15T09:13:07;97115.56;;;12.95;46.43
79198;BME280;68628;48.714;9.472;2023-04-15T09:15:37;97116.44;;;13.08;46.13
79198;BME280;68628;48.714;9.472;2023-04-15T09:18:03;97116.38;;;12.71;47.36
79198;BME280;68628;48.714;9.472;2023-04-15T09:20:40;97116.97;;;14.40;45.60
79198;BME280;68628;48.714;9.472;2023-04-15T09:23:14;97120.88;;;14.79;43.62
79198;BME280;68628;48.714;9.472;2023-04-15T09:25:40;97119.66;;;14.52;42.96
79198;BME280;68628;48.714;9.472;2023-04-15T09:28:07;97115.03;;;16.35;39.14
79198;BME280;68628;48.714;9.472;2023-04-15T09:30:33;97121.34;;;16.29;40.39
79198;BME280;68628;48.714;9.472;2023-04-15T09:33:03;97111.50;;;15.60;39.68
79198;BME280;68628;48.714;9.472;2023-04-15T09:35:33;97125.31;;;14.25;43.01
79198;BME280;68628;48.714;9.472;2023-04-15T09:38:07;97115.53;;;16.03;41.81
79198;BME280;68628;48.714;9.472;2023-04-15T09:40:40;97114.66;;;15.21;41.14
79198;BME280;68628;48.714;9.472;2023-04-15T09:43:08;97115.03;;;14.59;44.08
79198;BME280;68628;48.714;9.472;2023-04-15T09:45:35;97118.34;;;14.73;44.04
79198;BME280;68628;48.714;9.472;2023-04-15T09:48:21;97109.81;;;15.30;40.62
79198;BME280;68628;48.714;9.472;2023-04-15T09:50:51;97125.94;;;16.96;39.31
79198;BME280;68628;48.714;9.472;2023-04-15T09:53:19;97124.81;;;17.71;36.78
79198;BME280;68628;48.714;9.472;2023-04-15T09:55:50;97127.03;;;18.23;34.75
79198;BME280;68628;48.714;9.472;2023-04-15T09:58:27;97109.81;;;19.39;32.41
79198;BME280;68628;48.714;9.472;2023-04-15T10:00:56;97114.28;;;18.58;32.40
79198;BME280;68628;48.714;9.472;2023-04-15T10:03:30;97120.34;;;17.15;36.30
79198;BME280;68628;48.714;9.472;2023-04-15T10:06:06;97112.50;;;18.09;34.13
79198;BME280;68628;48.714;9.472;2023-04-15T10:08:33;97115.31;;;18.84;33.15
79198;BME280;68628;48.714;9.472;2023-04-15T10:11:03;97122.38;;;19.43;32.59
79198;BME280;68628;48.714;9.472;2023-04-15T10:13:30;97113.44;;;20.85;30.97
79198;BME280;68628;48.714;9.472;2023-04-15T10:16:07;97113.69;;;21.04;29.40
79198;BME280;68628;48.714;9.472;2023-04-15T10:18:39;97111.16;;;19.94;30.80
79198;BME280;68628;48.714;9.472;2023-04-15T10:21:07;97113.97;;;20.67;31.70
79198;BME280;68628;48.714;9.472;2023-04-15T10:23:33;97113.06;;;20.09;31.86
79198;BME280;68628;48.714;9.472;2023-04-15T10:25:59;97128.81;;;18.72;30.98
79198;BME280;68628;48.714;9.472;2023-04-15T10:28:25;97121.16;;;18.21;33.06
79198;BME280;68628;48.714;9.472;2023-04-15T10:30:52;97132.97;;;18.30;33.01
79198;BME280;68628;48.714;9.472;2023-04-15T10:33:21;97129.03;;;17.27;32.96
79198;BME280;68628;48.714;9.472;2023-04-15T10:35:49;97135.84;;;18.02;33.51
79198;BME280;68628;48.714;9.472;2023-04-15T10:38:40;97137.47;;;18.03;34.06
79198;BME280;68628;48.714;9.472;2023-04-15T10:43:37;97134.22;;;17.95;33.54
79198;BME280;68628;48.714;9.472;2023-04-15T10:46:04;97131.22;;;17.30;34.28
79198;BME280;68628;48.714;9.472;2023-04-15T10:48:31;97132.28;;;17.29;34.40
79198;BME280;68628;48.714;9.472;2023-04-15T10:50:59;97137.41;;;17.36;35.23
79198;BME280;68628;48.714;9.472;2023-04-15T10:53:30;97141.94;;;16.85;36.29
79198;BME280;68628;48.714;9.472;2023-04-15T10:55:59;97146.34;;;16.91;36.83
79198;BME280;68628;48.714;9.472;2023-04-15T10:58:25;97146.16;;;16.80;38.08
79198;BME280;68628;48.714;9.472;2023-04-15T11:00:52;97138.88;;;16.76;36.84
79198;BME280;68628;48.714;9.472;2023-04-15T11:03:38;97139.25;;;16.22;36.33
79198;BME280;68628;48.714;9.472;2023-04-15T11:06:07;97136.44;;;16.57;36.31
79198;BME280;68628;48.714;9.472;2023-04-15T11:08:53;97134.88;;;15.98;37.41
79198;BME280;68628;48.714;9.472;2023-04-15T11:14:39;97136.16;;;17.22;36.81
79198;BME280;68628;48.714;9.472;2023-04-15T11:17:06;97133.16;;;17.18;36.79
79198;BME280;68628;48.714;9.472;2023-04-15T11:19:36;97142.56;;;16.75;37.42
79198;BME280;68628;48.714;9.472;2023-04-15T11:22:10;97146.25;;;16.40;38.04
79198;BME280;68628;48.714;9.472;2023-04-15T11:24:46;97143.53;;;15.94;38.94
79198;BME280;68628;48.714;9.472;2023-04-15T11:27:23;97153.56;;;16.32;38.27
79198;BME280;68628;48.714;9.472;2023-04-15T11:29:49;97146.91;;;15.77;38.46
79198;BME280;68628;48.714;9.472;2023-04-15T11:32:15;97158.16;;;15.20;39.54
79198;BME280;68628;48.714;9.472;2023-04-15T11:34:40;97156.31;;;15.32;37.79
79198;BME280;68628;48.714;9.472;2023-04-15T11:37:09;97165.63;;;15.71;36.71
79198;BME280;68628;48.714;9.472;2023-04-15T11:39:36;97158.59;;;15.29;38.26
79198;BME280;68628;48.714;9.472;2023-04-15T11:42:02;97161.81;;;15.78;36.35
79198;BME280;68628;48.714;9.472;2023-04-15T11:44:27;97149.59;;;15.54;37.34
79198;BME280;68628;48.714;9.472;2023-04-15T11:46:54;97171.03;;;15.76;38.12
79198;BME280;68628;48.714;9.472;2023-04-15T11:49:30;97164.66;;;16.58;35.65
79198;BME280;68628;48.714;9.472;2023-04-15T11:51:58;97164.81;;;16.52;35.68
79198;BME280;68628;48.714;9.472;2023-04-15T11:54:24;97169.47;;;16.90;35.94
79198;BME280;68628;48.714;9.472;2023-04-15T11:56:51;97165.06;;;16.84;35.03
79198;BME280;68628;48.714;9.472;2023-04-15T11:59:17;97175.59;;;17.08;34.38
79198;BME280;68628;48.714;9.472;2023-04-15T12:01:43;97184.66;;;16.61;33.68
79198;BME280;68628;48.714;9.472;2023-04-15T12:04:12;97185.81;;;16.82;34.03
79198;BME280;68628;48.714;9.472;2023-04-15T12:06:44;97175.63;;;16.62;35.13
79198;BME280;68628;48.714;9.472;2023-04-15T12:09:17;97181.97;;;16.90;34.84
79198;BME280;68628;48.714;9.472;2023-04-15T12:14:19;97190.00;;;16.78;35.78
79198;BME280;68628;48.714;9.472;2023-04-15T12:16:54;97186.59;;;16.08;37.56
79198;BME280;68628;48.714;9.472;2023-04-15T12:19:26;97186.75;;;15.54;36.97
79198;BME280;68628;48.714;9.472;2023-04-15T12:21:59;97194.28;;;14.67;40.57
79198;BME280;68628;48.714;9.472;2023-04-15T12:24:26;97197.25;;;15.13;40.58
79198;BME280;68628;48.714;9.472;2023-04-15T12:26:56;97198.53;;;15.34;38.71
79198;BME280;68628;48.714;9.472;2023-04-15T12:29:27;97196.91;;;15.21;39.53
79198;BME280;68628;48.714;9.472;2023-04-15T12:32:05;97214.38;;;14.87;40.01
79198;BME280;68628;48.714;9.472;2023-04-15T12:34:38;97215.00;;;14.09;43.32
79198;BME280;68628;48.714;9.472;2023-04-15T12:37:09;97227.25;;;13.85;45.59
79198;BME280;68628;48.714;9.472;2023-04-15T12:39:38;97239.22;;;13.50;45.89
79198;BME280;68628;48.714;9.472;2023-04-15T12:42:06;97241.22;;;13.55;49.18
79198;BME280;68628;48.714;9.472;2023-04-15T12:44:34;97231.59;;;13.10;47.16
79198;BME280;68628;48.714;9.472;2023-04-15T12:47:01;97246.22;;;13.13;48.27
79198;BME280;68628;48.714;9.472;2023-04-15T12:49:28;97242.66;;;13.26;48.51
79198;BME280;68628;48.714;9.472;2023-04-15T12:51:56;97252.34;;;12.75;47.73
79198;BME280;68628;48.714;9.472;2023-04-15T12:54:24;97256.31;;;12.91;49.85
79198;BME280;68628;48.714;9.472;2023-04-15T12:56:51;97271.78;;;12.94;50.21
79198;BME280;68628;48.714;9.472;2023-04-15T12:59:18;97291.06;;;12.62;49.28
79198;BME280;68628;48.714;9.472;2023-04-15T13:01:46;97279.72;;;12.48;47.96
79198;BME280;68628;48.714;9.472;2023-04-15T13:04:13;97287.13;;;12.26;45.56
79198;BME280;68628;48.714;9.472;2023-04-15T13:06:41;97293.25;;;12.20;48.33
79198;BME280;68628;48.714;9.472;2023-04-15T13:09:07;97309.72;;;12.15;46.24
79198;BME280;68628;48.714;9.472;2023-04-15T13:11:33;97315.63;;;11.77;49.38
79198;BME280;68628;48.714;9.472;2023-04-15T13:14:00;97319.50;;;11.48;49.63
79198;BME280;68628;48.714;9.472;2023-04-15T13:16:27;97333.09;;;11.58;49.90